sensor_id;sensor_type;location;lat;lon;timestamp;pressure;altitude;pressure_sealevel;temperature;humidity
70902;BME280;58548;47.210;8.618;2023-04-07T00:01:48;94044.38;;;16.48;25.77
70902;BME280;58548;47.210;8.618;2023-04-07T00:04:16;94147.22;;;17.14;26.32
70902;BME280;58548;47.210;8.618;2023-04-07T00:06:44;94119.78;;;17.03;26.44
70902;BME280;58548;47.210;8.618;2023-04-07T00:09:13;94038.38;;;16.40;26.17
70902;BME280;58548;47.210;8.618;2023-04-07T00:11:39;94014.97;;;16.32;26.59
70902;BME280;58548;47.210;8.618;2023-04-07T00:14:07;94047.59;;;16.50;26.39
70902;BME280;58548;47.210;8.618;2023-04-07T00:16:33;94058.47;;;16.53;26.55
70902;BME280;58548;47.210;8.618;2023-04-07T00:19:01;94028.28;;;16.37;26.78
70902;BME280;58548;47.210;8.618;2023-04-07T00:21:27;94038.38;;;16.40;26.47
70902;BME280;58548;47.210;8.618;2023-04-07T00:23:58;94043.22;;;16.43;26.67
70902;BME280;58548;47.210;8.618;2023-04-07T00:26:28;94144.56;;;17.02;26.93
70902;BME280;58548;47.210;8.618;2023-04-07T00:28:58;94129.97;;;16.99;27.04
70902;BME280;58548;47.210;8.618;2023-04-07T00:31:24;94135.81;;;17.01;27.03
70902;BME280;58548;47.210;8.618;2023-04-07T00:33:50;94108.53;;;16.96;26.94
70902;BME280;58548;47.210;8.618;2023-04-07T00:36:16;94090.94;;;16.89;26.93
70902;BME280;58548;47.210;8.618;2023-04-07T00:38:42;94010.09;;;16.48;26.52
70902;BME280;58548;47.210;8.618;2023-04-07T00:41:08;94106.69;;;17.08;26.94
70902;BME280;58548;47.210;8.618;2023-04-07T00:43:34;94104.28;;;17.07;27.28
70902;BME280;58548;47.210;8.618;2023-04-07T00:46:00;94015.13;;;16.49;26.72
70902;BME280;58548;47.210;8.618;2023-04-07T00:48:28;94073.50;;;16.77;26.23
70902;BME280;58548;47.210;8.618;2023-04-07T00:50:55;94074.50;;;16.64;25.85
70902;BME280;58548;47.210;8.618;2023-04-07T00:53:22;94046.53;;;16.39;26.05
70902;BME280;58548;47.210;8.618;2023-04-07T00:55:48;94064.53;;;16.54;25.80
70902;BME280;58548;47.210;8.618;2023-04-07T00:58:13;93980.94;;;16.07;25.90
70902;BME280;58548;47.210;8.618;2023-04-07T01:00:57;94067.31;;;16.71;25.72
70902;BME280;58548;47.210;8.618;2023-04-07T01:03:37;93972.25;;;16.18;26.19
70902;BME280;58548;47.210;8.618;2023-04-07T01:06:07;93968.34;;;16.21;26.56
70902;BME280;58548;47.210;8.618;2023-04-07T01:08:50;94002.19;;;16.48;26.74
70902;BME280;58548;47.210;8.618;2023-04-07T01:14:02;94046.00;;;16.72;27.01
70902;BME280;58548;47.210;8.618;2023-04-07T01:16:42;94033.84;;;16.71;27.41
70902;BME280;58548;47.210;8.618;2023-04-07T01:19:22;94032.44;;;16.69;26.73
70902;BME280;58548;47.210;8.618;2023-04-07T01:21:57;94048.16;;;16.76;26.70
70902;BME280;58548;47.210;8.618;2023-04-07T01:27:32;94053.56;;;16.81;27.00
70902;BME280;58548;47.210;8.618;2023-04-07T01:30:04;93926.53;;;16.12;27.25
70902;BME280;58548;47.210;8.618;2023-04-07T01:32:36;94023.84;;;16.73;27.35
70902;BME280;58548;47.210;8.618;2023-04-07T01:35:03;93953.34;;;16.33;27.93
70902;BME280;58548;47.210;8.618;2023-04-07T01:37:32;93919.56;;;16.18;27.79
70902;BME280;58548;47.210;8.618;2023-04-07T01:40:02;94029.25;;;16.91;27.02
70902;BME280;58548;47.210;8.618;2023-04-07T01:42:32;94035.91;;;16.93;27.38
70902;BME280;58548;47.210;8.618;2023-04-07T01:45:01;93964.34;;;16.54;27.47
70902;BME280;58548;47.210;8.618;2023-04-07T01:47:31;93929.41;;;16.35;27.47
70902;BME280;58548;47.210;8.618;2023-04-07T01:49:58;94032.25;;;16.94;27.24
70902;BME280;58548;47.210;8.618;2023-04-07T01:52:27;94029.81;;;16.93;27.22
70902;BME280;58548;47.210;8.618;2023-04-07T01:54:56;94002.75;;;16.73;27.48
70902;BME280;58548;47.210;8.618;2023-04-07T01:57:25;94031.00;;;16.97;27.43
70902;BME280;58548;47.210;8.618;2023-04-07T01:59:54;93929.63;;;16.33;27.28
70902;BME280;58548;47.210;8.618;2023-04-07T02:02:25;94004.03;;;16.83;27.45
70902;BME280;58548;47.210;8.618;2023-04-07T02:04:59;94007.22;;;16.85;27.30
70902;BME280;58548;47.210;8.618;2023-04-07T02:10:14;94022.84;;;16.98;26.89
70902;BME280;58548;47.210;8.618;2023-04-07T02:12:41;94032.38;;;16.99;26.61
70902;BME280;58548;47.210;8.618;2023-04-07T02:15:15;93932.06;;;16.47;27.16
70902;BME280;58548;47.210;8.618;2023-04-07T02:17:46;93928.16;;;16.37;27.04
70902;BME280;58548;47.210;8.618;2023-04-07T02:20:16;93919.22;;;16.38;27.37
70902;BME280;58548;47.210;8.618;2023-04-07T02:22:42;93932.38;;;16.50;27.39
70902;BME280;58548;47.210;8.618;2023-04-07T02:25:33;93993.72;;;16.93;27.88
70902;BME280;58548;47.210;8.618;2023-04-07T02:27:59;94016.53;;;16.99;27.23
70902;BME280;58548;47.210;8.618;2023-04-07T02:30:28;93910.28;;;16.39;27.51
70902;BME280;58548;47.210;8.618;2023-04-07T02:32:54;94000.13;;;16.97;27.22
70902;BME280;58548;47.210;8.618;2023-04-07T02:35:25;93977.41;;;16.84;27.22
70902;BME280;58548;47.210;8.618;2023-04-07T02:37:51;93914.63;;;16.46;27.44
70902;BME280;58548;47.210;8.618;2023-04-07T02:40:17;93991.44;;;16.97;27.97
70902;BME280;58548;47.210;8.618;2023-04-07T02:42:45;93964.72;;;16.81;27.96
70902;BME280;58548;47.210;8.618;2023-04-07T02:45:14;93877.28;;;16.25;28.13
70902;BME280;58548;47.210;8.618;2023-04-07T02:47:43;93970.53;;;16.95;28.02
70902;BME280;58548;47.210;8.618;2023-04-07T02:50:11;93873.84;;;16.36;28.19
70902;BME280;58548;47.210;8.618;2023-04-07T02:52:42;93943.81;;;16.80;27.85
70902;BME280;58548;47.210;8.618;2023-04-07T02:55:08;93965.63;;;16.87;27.79
70902;BME280;58548;47.210;8.618;2023-04-07T02:57:34;93876.16;;;16.21;28.15
70902;BME280;58548;47.210;8.618;2023-04-07T03:00:03;93955.19;;;16.68;28.13
70902;BME280;58548;47.210;8.618;2023-04-07T03:02:31;93865.84;;;16.07;28.08
70902;BME280;58548;47.210;8.618;2023-04-07T03:05:02;93881.28;;;16.16;28.22
70902;BME280;58548;47.210;8.618;2023-04-07T03:07:31;93852.66;;;15.95;28.04
70902;BME280;58548;47.210;8.618;2023-04-07T03:09:59;93843.38;;;15.93;27.71
70902;BME280;58548;47.210;8.618;2023-04-07T03:12:27;93936.88;;;16.50;27.89
70902;BME280;58548;47.210;8.618;2023-04-07T03:14:56;93848.66;;;15.93;28.32
70902;BME280;58548;47.210;8.618;2023-04-07T03:17:22;93930.44;;;16.46;28.23
70902;BME280;58548;47.210;8.618;2023-04-07T03:19:50;93840.50;;;15.82;28.48
70902;BME280;58548;47.210;8.618;2023-04-07T03:22:21;93938.94;;;16.36;28.34
70902;BME280;58548;47.210;8.618;2023-04-07T03:24:49;93917.97;;;16.17;28.68
70902;BME280;58548;47.210;8.618;2023-04-07T03:27:14;93924.28;;;16.28;28.21
70902;BME280;58548;47.210;8.618;2023-04-07T03:29:43;93919.31;;;16.20;27.68
70902;BME280;58548;47.210;8.618;2023-04-07T03:32:11;93886.66;;;15.97;28.18
70902;BME280;58548;47.210;8.618;2023-04-07T03:34:37;93928.84;;;16.21;28.30
70902;BME280;58548;47.210;8.618;2023-04-07T03:37:03;93914.63;;;16.22;28.14
70902;BME280;58548;47.210;8.618;2023-04-07T03:39:33;93805.53;;;15.51;28.50
70902;BME280;58548;47.210;8.618;2023-04-07T03:42:02;93825.94;;;15.68;28.79
70902;BME280;58548;47.210;8.618;2023-04-07T03:44:31;93875.22;;;16.03;28.81
70902;BME280;58548;47.210;8.618;2023-04-07T03:46:59;93898.13;;;16.15;28.70
70902;BME280;58548;47.210;8.618;2023-04-07T03:49:28;93906.72;;;16.22;28.39
70902;BME280;58548;47.210;8.618;2023-04-07T03:51:55;93903.41;;;16.15;28.67
70902;BME280;58548;47.210;8.618;2023-04-07T03:54:21;93898.50;;;16.18;28.44
70902;BME280;58548;47.210;8.618;2023-04-07T03:56:49;93903.06;;;16.23;28.59
70902;BME280;58548;47.210;8.618;2023-04-07T03:59:17;93906.72;;;16.22;28.99
70902;BME280;58548;47.210;8.618;2023-04-07T04:01:44;93888.53;;;16.08;28.22
70902;BME280;58548;47.210;8.618;2023-04-07T04:04:11;93903.28;;;16.21;28.08
70902;BME280;58548;47.210;8.618;2023-04-07T04:06:39;93861.03;;;16.04;28.16
70902;BME280;58548;47.210;8.618;2023-04-07T04:09:07;93785.50;;;15.50;28.30
70902;BME280;58548;47.210;8.618;2023-04-07T04:11:36;93900.88;;;16.20;28.52
70902;BME280;58548;47.210;8.618;2023-04-07T04:14:02;93738.09;;;15.15;28.45
70902;BME280;58548;47.210;8.618;2023-04-07T04:16:28;93909.59;;;16.20;28.30
70902;BME280;58548;47.210;8.618;2023-04-07T04:18:56;93807.84;;;15.60;28.35
70902;BME280;58548;47.210;8.618;2023-04-07T04:21:24;93869.38;;;16.01;28.11
70902;BME280;58548;47.210;8.618;2023-04-07T04:23:52;93892.41;;;16.18;28.19
70902;BME280;58548;47.210;8.618;2023-04-07T04:26:18;93884.06;;;16.21;27.75
70902;BME280;58548;47.210;8.618;2023-04-07T04:28:45;93714.09;;;15.11;27.99
70902;BME280;58548;47.210;8.618;2023-04-07T04:31:11;93801.44;;;15.67;28.12
70902;BME280;58548;47.210;8.618;2023-04-07T04:33:39;93774.53;;;15.53;28.18
70902;BME280;58548;47.210;8.618;2023-04-07T04:36:09;93884.16;;;16.26;27.84
70902;BME280;58548;47.210;8.618;2023-04-07T04:38:37;93887.00;;;16.24;27.65
70902;BME280;58548;47.210;8.618;2023-04-07T04:41:03;93800.31;;;15.75;27.75
70902;BME280;58548;47.210;8.618;2023-04-07T04:43:31;93893.22;;;16.30;27.74
70902;BME280;58548;47.210;8.618;2023-04-07T04:45:59;93828.28;;;16.00;27.67
70902;BME280;58548;47.210;8.618;2023-04-07T04:48:27;93859.06;;;16.23;27.89
70902;BME280;58548;47.210;8.618;2023-04-07T04:50:53;93879.47;;;16.28;27.84
70902;BME280;58548;47.210;8.618;2023-04-07T04:53:19;93879.56;;;16.33;27.64
70902;BME280;58548;47.210;8.618;2023-04-07T04:55:45;93851.41;;;16.22;27.59
70902;BME280;58548;47.210;8.618;2023-04-07T04:58:17;93785.91;;;15.66;27.37
70902;BME280;58548;47.210;8.618;2023-04-07T05:00:43;93856.44;;;16.11;27.13
70902;BME280;58548;47.210;8.618;2023-04-07T05:03:09;93843.38;;;16.05;27.23
70902;BME280;58548;47.210;8.618;2023-04-07T05:05:35;93879.03;;;16.07;27.36
70902;BME280;58548;47.210;8.618;2023-04-07T05:08:01;93878.44;;;16.05;27.44
70902;BME280;58548;47.210;8.618;2023-04-07T05:10:27;93874.06;;;15.99;27.45
70902;BME280;58548;47.210;8.618;2023-04-07T05:12:52;93797.06;;;15.49;27.62
70902;BME280;58548;47.210;8.618;2023-04-07T05:15:20;93866.50;;;15.91;27.51
70902;BME280;58548;47.210;8.618;2023-04-07T05:17:46;93770.28;;;15.29;27.61
70902;BME280;58548;47.210;8.618;2023-04-07T05:20:17;93824.22;;;15.62;27.96
70902;BME280;58548;47.210;8.618;2023-04-07T05:22:43;93876.25;;;15.90;28.14
70902;BME280;58548;47.210;8.618;2023-04-07T05:25:09;93793.50;;;15.32;28.32
70902;BME280;58548;47.210;8.618;2023-04-07T05:27:37;93779.53;;;15.19;28.96
70902;BME280;58548;47.210;8.618;2023-04-07T05:30:03;93877.22;;;15.77;28.78
70902;BME280;58548;47.210;8.618;2023-04-07T05:32:30;93784.78;;;15.19;28.52
70902;BME280;58548;47.210;8.618;2023-04-07T05:34:56;93763.94;;;15.06;28.88
70902;BME280;58548;47.210;8.618;2023-04-07T05:37:24;93863.50;;;15.75;29.20
70902;BME280;58548;47.210;8.618;2023-04-07T05:39:50;93815.84;;;15.41;29.29
70902;BME280;58548;47.210;8.618;2023-04-07T05:42:16;93862.91;;;15.73;29.52
70902;BME280;58548;47.210;8.618;2023-04-07T05:44:42;93858.66;;;15.72;29.47
70902;BME280;58548;47.210;8.618;2023-04-07T05:47:08;93858.66;;;15.72;29.46
70902;BME280;58548;47.210;8.618;2023-04-07T05:49:34;93851.81;;;15.71;29.57
70902;BME280;58548;47.210;8.618;2023-04-07T05:52:00;93772.81;;;15.23;29.76
70902;BME280;58548;47.210;8.618;2023-04-07T05:54:32;93817.34;;;15.61;29.70
70902;BME280;58548;47.210;8.618;2023-04-07T05:56:58;93843.69;;;15.85;29.49
70902;BME280;58548;47.210;8.618;2023-04-07T05:59:26;93837.00;;;15.89;29.24
70902;BME280;58548;47.210;8.618;2023-04-07T06:01:52;93725.44;;;15.23;29.60
70902;BME280;58548;47.210;8.618;2023-04-07T06:04:18;93843.03;;;15.89;29.67
70902;BME280;58548;47.210;8.618;2023-04-07T06:06:46;93824.13;;;15.80;29.84
70902;BME280;58548;47.210;8.618;2023-04-07T06:09:14;93848.53;;;16.00;29.58
70902;BME280;58548;47.210;8.618;2023-04-07T06:11:40;93728.19;;;15.29;29.72
70902;BME280;58548;47.210;8.618;2023-04-07T06:14:08;93800.44;;;15.80;29.69
70902;BME280;58548;47.210;8.618;2023-04-07T06:16:34;93816.47;;;16.03;29.05
70902;BME280;58548;47.210;8.618;2023-04-07T06:19:00;93830.00;;;16.18;29.69
70902;BME280;58548;47.210;8.618;2023-04-07T06:21:26;93830.44;;;16.27;29.73
70902;BME280;58548;47.210;8.618;2023-04-07T06:23:54;93847.03;;;16.39;29.23
70902;BME280;58548;47.210;8.618;2023-04-07T06:26:23;93731.84;;;15.75;29.38
70902;BME280;58548;47.210;8.618;2023-04-07T06:28:49;93841.03;;;16.56;29.24
70902;BME280;58548;47.210;8.618;2023-04-07T06:31:15;93838.63;;;16.66;29.11
70902;BME280;58548;47.210;8.618;2023-04-07T06:33:44;93846.06;;;16.69;28.81
70902;BME280;58548;47.210;8.618;2023-04-07T06:36:12;93761.81;;;16.22;28.56
70902;BME280;58548;47.210;8.618;2023-04-07T06:38:41;93841.91;;;16.73;28.77
70902;BME280;58548;47.210;8.618;2023-04-07T06:41:06;93817.28;;;16.68;29.29
70902;BME280;58548;47.210;8.618;2023-04-07T06:43:36;93744.84;;;16.30;29.31
70902;BME280;58548;47.210;8.618;2023-04-07T06:46:02;93842.22;;;17.01;28.86
70902;BME280;58548;47.210;8.618;2023-04-07T06:48:30;93732.69;;;16.40;29.00
70902;BME280;58548;47.210;8.618;2023-04-07T06:50:56;93749.25;;;16.53;29.24
70902;BME280;58548;47.210;8.618;2023-04-07T06:53:22;93833.84;;;17.21;28.95
70902;BME280;58548;47.210;8.618;2023-04-07T06:55:47;93836.50;;;17.21;28.97
70902;BME280;58548;47.210;8.618;2023-04-07T06:58:13;93817.47;;;17.19;28.41
70902;BME280;58548;47.210;8.618;2023-04-07T07:00:39;93730.69;;;16.77;28.61
70902;BME280;58548;47.210;8.618;2023-04-07T07:03:08;93761.13;;;16.96;28.76
70902;BME280;58548;47.210;8.618;2023-04-07T07:05:38;93745.13;;;16.86;28.02
70902;BME280;58548;47.210;8.618;2023-04-07T07:08:06;93842.31;;;17.52;28.35
70902;BME280;58548;47.210;8.618;2023-04-07T07:10:37;93745.09;;;16.98;28.13
70902;BME280;58548;47.210;8.618;2023-04-07T07:13:03;93839.59;;;17.64;28.01
70902;BME280;58548;47.210;8.618;2023-04-07T07:15:31;93844.25;;;17.74;27.36
70902;BME280;58548;47.210;8.618;2023-04-07T07:17:59;93762.94;;;17.25;26.99
70902;BME280;58548;47.210;8.618;2023-04-07T07:20:27;93839.38;;;17.83;26.75
70902;BME280;58548;47.210;8.618;2023-04-07T07:22:53;93837.03;;;17.86;26.82
70902;BME280;58548;47.210;8.618;2023-04-07T07:25:21;93745.97;;;17.38;26.92
70902;BME280;58548;47.210;8.618;2023-04-07T07:27:49;93835.22;;;18.04;26.49
70902;BME280;58548;47.210;8.618;2023-04-07T07:30:22;93838.50;;;18.11;25.92
70902;BME280;58548;47.210;8.618;2023-04-07T07:32:52;93833.84;;;18.18;26.00
70902;BME280;58548;47.210;8.618;2023-04-07T07:35:21;93839.75;;;18.26;26.37
70902;BME280;58548;47.210;8.618;2023-04-07T07:37:49;93843.56;;;18.35;25.63
70902;BME280;58548;47.210;8.618;2023-04-07T07:40:18;93742.38;;;17.78;26.92
70902;BME280;58548;47.210;8.618;2023-04-07T07:42:45;93822.19;;;18.36;27.28
70902;BME280;58548;47.210;8.618;2023-04-07T07:45:15;93812.50;;;18.42;26.85
70902;BME280;58548;47.210;8.618;2023-04-07T07:47:46;93745.84;;;18.01;27.68
70902;BME280;58548;47.210;8.618;2023-04-07T07:50:14;93760.19;;;18.05;27.46
70902;BME280;58548;47.210;8.618;2023-04-07T07:52:42;93839.03;;;18.52;26.90
70902;BME280;58548;47.210;8.618;2023-04-07T07:55:10;93861.94;;;18.64;27.31
70902;BME280;58548;47.210;8.618;2023-04-07T07:57:39;93828.88;;;18.44;27.89
70902;BME280;58548;47.210;8.618;2023-04-07T08:00:07;93869.63;;;18.65;27.79
70902;BME280;58548;47.210;8.618;2023-04-07T08:02:36;93863.00;;;18.63;27.90
70902;BME280;58548;47.210;8.618;2023-04-07T08:05:03;93778.44;;;18.06;27.70
70902;BME280;58548;47.210;8.618;2023-04-07T08:07:29;93872.06;;;18.72;27.26
70902;BME280;58548;47.210;8.618;2023-04-07T08:09:55;93785.47;;;18.18;26.80
70902;BME280;58548;47.210;8.618;2023-04-07T08:12:21;93887.53;;;18.80;26.59
70902;BME280;58548;47.210;8.618;2023-04-07T08:14:47;93887.84;;;18.84;26.78
70902;BME280;58548;47.210;8.618;2023-04-07T08:17:14;93801.22;;;18.30;25.71
70902;BME280;58548;47.210;8.618;2023-04-07T08:19:40;93898.72;;;18.88;25.55
70902;BME280;58548;47.210;8.618;2023-04-07T08:22:06;93815.72;;;18.27;26.37
70902;BME280;58548;47.210;8.618;2023-04-07T08:24:34;93904.38;;;18.74;26.56
70902;BME280;58548;47.210;8.618;2023-04-07T08:27:00;93895.88;;;18.72;26.49
70902;BME280;58548;47.210;8.618;2023-04-07T08:29:26;93916.00;;;18.73;26.49
70902;BME280;58548;47.210;8.618;2023-04-07T08:31:52;93927.06;;;18.70;26.28
70902;BME280;58548;47.210;8.618;2023-04-07T08:34:20;93933.75;;;18.56;26.81
70902;BME280;58548;47.210;8.618;2023-04-07T08:36:46;93940.91;;;18.38;27.00
70902;BME280;58548;47.210;8.618;2023-04-07T08:39:14;93839.91;;;17.68;27.60
70902;BME280;58548;47.210;8.618;2023-04-07T08:41:41;93934.97;;;18.31;27.36
70902;BME280;58548;47.210;8.618;2023-04-07T08:44:09;93933.47;;;18.35;27.40
70902;BME280;58548;47.210;8.618;2023-04-07T08:46:38;93936.00;;;18.30;27.29
70902;BME280;58548;47.210;8.618;2023-04-07T08:49:08;93880.44;;;17.90;27.77
70902;BME280;58548;47.210;8.618;2023-04-07T08:51:37;93868.41;;;17.83;27.75
70902;BME280;58548;47.210;8.618;2023-04-07T08:54:08;93951.78;;;18.42;27.19
70902;BME280;58548;47.210;8.618;2023-04-07T08:56:37;93856.91;;;17.89;27.37
70902;BME280;58548;47.210;8.618;2023-04-07T08:59:08;93952.84;;;18.41;27.57
70902;BME280;58548;47.210;8.618;2023-04-07T09:01:35;93919.13;;;18.14;27.95
70902;BME280;58548;47.210;8.618;2023-04-07T09:04:03;93955.72;;;18.39;27.58
70902;BME280;58548;47.210;8.618;2023-04-07T09:06:30;93958.44;;;18.44;27.77
70902;BME280;58548;47.210;8.618;2023-04-07T09:09:00;93889.22;;;17.96;27.92
70902;BME280;58548;47.210;8.618;2023-04-07T09:11:28;93926.25;;;18.13;28.19
70902;BME280;58548;47.210;8.618;2023-04-07T09:13:57;93932.81;;;18.28;27.84
70902;BME280;58548;47.210;8.618;2023-04-07T09:16:28;93927.53;;;18.28;27.99
70902;BME280;58548;47.210;8.618;2023-04-07T09:18:57;93926.34;;;18.18;28.01
70902;BME280;58548;47.210;8.618;2023-04-07T09:21:26;93867.59;;;17.82;28.51
70902;BME280;58548;47.210;8.618;2023-04-07T09:24:24;93949.00;;;18.31;28.49
70902;BME280;58548;47.210;8.618;2023-04-07T09:27:13;93971.81;;;18.54;28.68
70902;BME280;58548;47.210;8.618;2023-04-07T09:29:43;93876.28;;;17.94;28.43
70902;BME280;58548;47.210;8.618;2023-04-07T09:32:12;93979.50;;;18.56;28.14
70902;BME280;58548;47.210;8.618;2023-04-07T09:34:58;93978.16;;;18.36;28.54
70902;BME280;58548;47.210;8.618;2023-04-07T09:37:24;93979.91;;;18.31;28.78
70902;BME280;58548;47.210;8.618;2023-04-07T09:39:51;93891.66;;;17.52;28.97
70902;BME280;58548;47.210;8.618;2023-04-07T09:42:19;93931.88;;;17.71;29.38
70902;BME280;58548;47.210;8.618;2023-04-07T09:44:46;93976.09;;;17.92;29.40
70902;BME280;58548;47.210;8.618;2023-04-07T09:47:14;93968.19;;;17.63;29.33
70902;BME280;58548;47.210;8.618;2023-04-07T09:49:52;93893.22;;;17.07;29.82
70902;BME280;58548;47.210;8.618;2023-04-07T09:52:23;93985.72;;;17.70;30.10
70902;BME280;58548;47.210;8.618;2023-04-07T09:54:53;93980.06;;;17.49;30.31
70902;BME280;58548;47.210;8.618;2023-04-07T09:57:21;93912.03;;;17.10;30.44
70902;BME280;58548;47.210;8.618;2023-04-07T09:59:50;93903.63;;;17.13;30.11
70902;BME280;58548;47.210;8.618;2023-04-07T10:02:17;93985.00;;;17.74;30.61
70902;BME280;58548;47.210;8.618;2023-04-07T10:04:43;93984.13;;;17.69;31.14
70902;BME280;58548;47.210;8.618;2023-04-07T10:07:09;93889.06;;;17.23;31.05
70902;BME280;58548;47.210;8.618;2023-04-07T10:09:38;93894.91;;;17.42;30.57
70902;BME280;58548;47.210;8.618;2023-04-07T10:12:05;93982.59;;;18.02;31.21
70902;BME280;58548;47.210;8.618;2023-04-07T10:14:36;93966.56;;;17.91;31.20
70902;BME280;58548;47.210;8.618;2023-04-07T10:17:04;93977.22;;;17.97;31.16
70902;BME280;58548;47.210;8.618;2023-04-07T10:19:31;93890.25;;;17.32;30.87
70902;BME280;58548;47.210;8.618;2023-04-07T10:22:03;93974.38;;;17.86;31.76
70902;BME280;58548;47.210;8.618;2023-04-07T10:27:18;93887.41;;;17.33;31.44
70902;BME280;58548;47.210;8.618;2023-04-07T10:29:50;93906.09;;;17.32;31.43
70902;BME280;58548;47.210;8.618;2023-04-07T10:32:21;93908.97;;;17.30;31.65
70902;BME280;58548;47.210;8.618;2023-04-07T10:37:13;93913.41;;;17.13;31.83
70902;BME280;58548;47.210;8.618;2023-04-07T10:39:44;93885.66;;;16.98;32.38
70902;BME280;58548;47.210;8.618;2023-04-07T10:45:05;93998.38;;;17.68;32.29
70902;BME280;58548;47.210;8.618;2023-04-07T10:48:07;93847.06;;;16.80;31.84
70902;BME280;58548;47.210;8.618;2023-04-07T10:50:24;93974.50;;;17.62;31.95
70902;BME280;58548;47.210;8.618;2023-04-07T10:53:14;94014.44;;;17.95;32.01
70902;BME280;58548;47.210;8.618;2023-04-07T10:55:43;94026.84;;;17.94;32.16
70902;BME280;58548;47.210;8.618;2023-04-07T10:58:36;93923.56;;;17.21;31.96
70902;BME280;58548;47.210;8.618;2023-04-07T11:03:35;93949.78;;;17.11;31.71
70902;BME280;58548;47.210;8.618;2023-04-07T11:06:06;93997.88;;;17.42;31.65
70902;BME280;58548;47.210;8.618;2023-04-07T11:08:36;94023.44;;;17.53;31.71
70902;BME280;58548;47.210;8.618;2023-04-07T11:11:08;94027.38;;;17.39;32.17
70902;BME280;58548;47.210;8.618;2023-04-07T11:13:48;94015.00;;;17.27;31.70
70902;BME280;58548;47.210;8.618;2023-04-07T11:16:17;93944.88;;;16.67;31.86
70902;BME280;58548;47.210;8.618;2023-04-07T11:18:45;93949.81;;;16.51;31.66
70902;BME280;58548;47.210;8.618;2023-04-07T11:21:17;93941.56;;;16.48;31.89
70902;BME280;58548;47.210;8.618;2023-04-07T11:23:50;93944.31;;;16.29;31.80
70902;BME280;58548;47.210;8.618;2023-04-07T11:26:16;94031.41;;;16.46;32.74
70902;BME280;58548;47.210;8.618;2023-04-07T11:28:55;94048.03;;;16.47;32.76
70902;BME280;58548;47.210;8.618;2023-04-07T11:31:28;93876.66;;;15.33;32.91
70902;BME280;58548;47.210;8.618;2023-04-07T11:33:58;93953.00;;;15.75;32.90
70902;BME280;58548;47.210;8.618;2023-04-07T11:36:32;93924.41;;;15.48;32.89
70902;BME280;58548;47.210;8.618;2023-04-07T11:38:59;94063.06;;;16.16;33.38
70902;BME280;58548;47.210;8.618;2023-04-07T11:41:30;93932.06;;;15.38;33.20
70902;BME280;58548;47.210;8.618;2023-04-07T11:44:08;94048.19;;;16.09;33.44
70902;BME280;58548;47.210;8.618;2023-04-07T11:46:40;94047.25;;;16.16;34.01
70902;BME280;58548;47.210;8.618;2023-04-07T11:49:17;93969.47;;;15.71;33.51
70902;BME280;58548;47.210;8.618;2023-04-07T11:51:45;94056.69;;;16.35;34.07
70902;BME280;58548;47.210;8.618;2023-04-07T11:54:14;94033.22;;;16.34;33.68
70902;BME280;58548;47.210;8.618;2023-04-07T11:56:42;94053.53;;;16.57;33.72
70902;BME280;58548;47.210;8.618;2023-04-07T11:59:18;94051.28;;;16.72;33.87
70902;BME280;58548;47.210;8.618;2023-04-07T12:01:49;93955.66;;;16.30;34.40
70902;BME280;58548;47.210;8.618;2023-04-07T12:04:16;93891.47;;;16.00;34.09
70902;BME280;58548;47.210;8.618;2023-04-07T12:06:46;93965.38;;;16.65;34.00
70902;BME280;58548;47.210;8.618;2023-04-07T12:11:55;93964.66;;;17.17;33.58
70902;BME280;58548;47.210;8.618;2023-04-07T12:14:23;94044.56;;;17.82;33.26
70902;BME280;58548;47.210;8.618;2023-04-07T12:16:54;93957.81;;;17.45;32.62
70902;BME280;58548;47.210;8.618;2023-04-07T12:19:25;94034.22;;;18.21;32.29
70902;BME280;58548;47.210;8.618;2023-04-07T12:21:55;94047.22;;;18.40;32.08
70902;BME280;58548;47.210;8.618;2023-04-07T12:24:21;94043.84;;;18.45;32.21
70902;BME280;58548;47.210;8.618;2023-04-07T12:26:48;94047.38;;;18.50;31.84
70902;BME280;58548;47.210;8.618;2023-04-07T12:29:15;94028.00;;;18.45;31.79
70902;BME280;58548;47.210;8.618;2023-04-07T12:31:41;94048.03;;;18.58;32.09
70902;BME280;58548;47.210;8.618;2023-04-07T12:34:08;93964.00;;;17.97;31.45
70902;BME280;58548;47.210;8.618;2023-04-07T12:36:34;94041.44;;;18.43;31.58
70902;BME280;58548;47.210;8.618;2023-04-07T12:39:00;94051.53;;;18.46;31.69
70902;BME280;58548;47.210;8.618;2023-04-07T12:41:29;94052.91;;;18.49;32.04
70902;BME280;58548;47.210;8.618;2023-04-07T12:43:58;93964.34;;;18.00;31.91
70902;BME280;58548;47.210;8.618;2023-04-07T12:46:27;94041.09;;;18.22;31.74
70902;BME280;58548;47.210;8.618;2023-04-07T12:48:57;93942.66;;;17.69;31.82
70902;BME280;58548;47.210;8.618;2023-04-07T12:51:23;93957.13;;;17.96;31.93
70902;BME280;58548;47.210;8.618;2023-04-07T12:53:50;94021.81;;;18.39;31.92
70902;BME280;58548;47.210;8.618;2023-04-07T12:56:19;94050.25;;;18.66;31.60
70902;BME280;58548;47.210;8.618;2023-04-07T12:58:47;94009.56;;;18.50;32.61
70902;BME280;58548;47.210;8.618;2023-04-07T13:01:13;94030.38;;;18.80;32.34
70902;BME280;58548;47.210;8.618;2023-04-07T13:03:41;94048.88;;;19.14;31.67
70902;BME280;58548;47.210;8.618;2023-04-07T13:06:07;94045.94;;;19.33;30.89
70902;BME280;58548;47.210;8.618;2023-04-07T13:08:35;93953.41;;;18.99;30.93
70902;BME280;58548;47.210;8.618;2023-04-07T13:11:03;94039.31;;;19.75;29.50
70902;BME280;58548;47.210;8.618;2023-04-07T13:13:32;93958.91;;;19.37;29.81
70902;BME280;58548;47.210;8.618;2023-04-07T13:16:00;94044.75;;;20.13;30.04
70902;BME280;58548;47.210;8.618;2023-04-07T13:18:26;94023.72;;;20.28;29.43
70902;BME280;58548;47.210;8.618;2023-04-07T13:20:52;94034.22;;;20.51;29.20
70902;BME280;58548;47.210;8.618;2023-04-07T13:23:21;93953.63;;;20.19;28.67
70902;BME280;58548;47.210;8.618;2023-04-07T13:25:49;93952.19;;;20.39;28.75
70902;BME280;58548;47.210;8.618;2023-04-07T13:28:15;94048.22;;;21.11;28.81
70902;BME280;58548;47.210;8.618;2023-04-07T13:30:42;93934.00;;;20.58;27.65